Weather at Keningau Airport

Public forecast

Using degrees Celsius for public forecast. Weather courtesy of forecast.io.

Closest aviation weather report (METAR) to Keningau Airport

Closest report is Kota Kinabalu International Airport, 35.2 nm (65.2 km) N.

2024/04/13 12:30 (retrieved 13 minutes ago)

WBKK 131230Z VRB02KT 9999 FEW014 FEW016CB 30/26 Q1008 NOSIG

Closest aviation forecast (TAF) to Keningau Airport

Closest forecast is Kota Kinabalu International Airport, 35.2 nm (65.2 km) N.

2024/04/13 12:12 (retrieved 31 minutes ago)

TAF WBKK 131100Z 1312/1412 12005KT 9999 FEW014 BECMG 1400/1402 33007KT